Latest Weather Observations for Winton

IDQ60801

Issued at 6:32 pm EST Wednesday 22 February 2017 (issued every 30 minutes, with the page automatically refreshed every 10 minutes)

About weather observations | Map of weather stations | Latest weather observations for QLD | Other Formats
Station Details ID: 037039 Name: WINTON AIRPORT Lat: -22.36 Lon: 143.08 Height: 192.2 m
Data from the previous 72 hours. | See also: Recent months at Winton
Date/Time
EST
Temp
°C
App
Temp
°C
Dew
Point
°C
Rel
Hum
%
Delta-T
°C
Wind Press
QNH
hPa
Press
MSL
hPa
Rain since
9am
mm
Dir  Spd
km/h
Gust
km/h
Spd
kts
Gust
kts
22/06:30pm 32.7 31.1 16.1 37 10.5 ESE 19 24 10 13 1011.0 1009.5 0.0
22/06:00pm 33.0 31.9 17.2 39 10.2 ESE 19 26 10 14 1010.9 1009.4 0.0
22/05:30pm 33.5 31.5 16.4 36 10.9 ESE 22 30 12 16 1010.4 1009.0 0.0
22/05:00pm 34.0 31.8 15.9 33 11.5 E 22 30 12 16 1010.2 1008.8 0.0
22/04:30pm 34.5 32.7 14.4 30 12.5 ENE 17 24 9 13 1010.1 1008.7 0.0
22/04:00pm 34.5 33.4 16.4 34 11.6 ENE 17 24 9 13 1010.0 1008.6 0.0
22/03:30pm 34.8 33.8 16.6 33 11.7 ENE 17 26 9 14 1010.2 1008.8 0.0
22/03:00pm 35.0 33.1 16.8 34 11.7 NE 22 41 12 22 1010.8 1009.3 0.0
22/02:30pm 34.0 32.7 16.8 35 11.0 NE 19 28 10 15 1011.0 1009.5 0.0
22/02:00pm 34.9 34.3 17.6 35 11.3 NE 17 30 9 16 1011.4 1009.9 0.0
22/01:30pm 34.8 35.1 18.0 37 11.0 NE 13 30 7 16 1011.9 1010.4 0.0
22/01:00pm 34.6 34.5 17.8 37 10.9 ENE 15 26 8 14 1012.3 1010.9 0.0
22/12:30pm 34.1 33.0 17.3 36 10.8 NE 19 33 10 18 1012.8 1011.4 0.0
22/12:00pm 34.0 33.1 18.1 39 10.4 NE 20 33 11 18 1013.2 1011.8 0.0
22/11:30am 32.5 32.0 17.9 41 9.5 ENE 17 28 9 15 1013.4 1012.0 0.0
22/11:00am 31.4 32.8 18.7 46 8.3 E 9 20 5 11 1013.7 1012.3 0.0
22/10:30am 30.5 31.3 19.8 52 7.1 ENE 15 20 8 11 1014.1 1012.7 0.0
22/10:00am 28.9 28.6 19.2 55 6.3 ENE 19 24 10 13 1014.3 1012.9 0.0
22/09:30am 27.9 28.7 19.9 61 5.3 ENE 15 19 8 10 1014.5 1013.1 0.0
22/09:00am 25.2 26.8 20.7 76 3.0 ENE 13 17 7 9 1014.6 1013.2 0.4
22/08:30am 23.9 25.5 20.8 83 2.0 E 13 17 7 9 1014.3 1012.9 0.4
22/08:00am 23.1 25.6 21.0 88 1.4 E 9 11 5 6 1014.2 1012.8 0.4
22/07:30am 22.8 25.6 20.5 87 1.5 E 6 6 3 3 1014.0 1012.6 0.2
22/07:00am 22.6 25.9 20.7 89 1.2 SE 4 6 2 3 1013.6 1012.2 0.2
22/06:30am 22.4 25.2 20.5 89 1.2 SE 6 6 3 3 1013.4 1012.0 0.2
22/06:00am 22.3 25.5 20.6 90 1.1 SE 4 6 2 3 1013.2 1011.8 0.2
22/05:30am 22.2 24.9 20.7 91 1.0 ESE 7 9 4 5 1013.2 1011.8 0.2
22/05:00am 21.9 24.5 20.4 91 1.0 E 7 11 4 6 1012.6 1011.2 0.2
22/04:30am 22.0 24.6 20.5 91 1.0 E 7 9 4 5 1012.5 1011.1 0.2
22/04:00am 22.3 24.7 20.0 87 1.5 NNE 7 11 4 6 1012.6 1011.2 0.0
22/03:30am 22.4 24.0 19.9 86 1.6 N 11 15 6 8 1012.6 1011.2 0.0
22/03:00am 22.3 23.3 20.2 88 1.4 N 15 22 8 12 1013.1 1011.7 0.0
22/02:30am 22.3 22.5 20.2 88 1.4 N 19 24 10 13 1013.6 1012.2 0.0
22/02:00am 24.0 23.4 18.9 73 3.3 N 20 28 11 15 1013.7 1012.3 0.0
22/01:30am 24.7 23.6 17.7 65 4.4 NNW 20 28 11 15 1013.5 1012.1 0.0
22/01:00am 25.5 24.6 16.9 59 5.4 NW 17 22 9 12 1013.4 1012.0 0.0
22/12:30am 26.0 24.7 16.8 57 5.7 NW 19 26 10 14 1013.6 1012.2 0.0
22/12:00am 26.7 24.5 16.9 55 6.1 NNW 24 32 13 17 1013.6 1012.2 0.0
 
Date/Time
EST
Temp
°C
App
Temp
°C
Dew
Point
°C
Rel
Hum
%
Delta-T
°C
Wind Press
QNH
hPa
Press
MSL
hPa
Rain since
9am
mm
Dir  Spd
km/h
Gust
km/h
Spd
kts
Gust
kts
21/11:30pm 28.5 26.7 15.4 45 8.1 NNW 19 26 10 14 1013.6 1012.2 0.0
21/11:00pm 28.9 26.8 15.1 43 8.5 NNW 20 26 11 14 1013.2 1011.8 0.0
21/10:30pm 30.1 29.3 13.0 35 10.2 E 9 11 5 6 1013.1 1011.7 0.0
21/10:00pm 30.3 29.2 13.1 34 10.3 S 11 17 6 9 1012.8 1011.4 0.0
21/09:30pm 31.9 31.6 13.2 32 11.3 NNE 7 17 4 9 1012.5 1011.1 0.0
21/09:00pm 30.8 30.4 13.1 34 10.6 NNE 7 9 4 5 1012.0 1010.6 0.0
21/08:30pm 30.8 29.1 13.6 35 10.4 N 15 17 8 9 1011.6 1010.1 0.0
21/08:00pm 30.2 29.7 13.9 37 9.9 N 9 13 5 7 1011.8 1010.3 0.0
21/07:30pm 30.3 28.8 13.1 34 10.3 N 13 19 7 10 1011.6 1010.1 0.0
21/07:00pm 30.4 27.9 14.1 37 9.9 N 20 24 11 13 1011.2 1009.7 0.0
21/06:30pm 31.1 27.8 12.9 32 10.9 N 22 28 12 15 1010.8 1009.3 0.0
21/06:00pm 32.7 29.3 11.3 27 12.6 N 20 26 11 14 1010.7 1009.2 0.0
21/05:30pm 33.1 28.8 9.2 23 13.6 N 22 28 12 15 1010.8 1009.3 0.0
21/05:00pm 33.7 30.6 10.3 24 13.6 NNE 17 28 9 15 1010.6 1009.1 0.0
21/04:30pm 34.9 32.3 10.7 23 14.2 NE 15 22 8 12 1010.7 1009.2 0.0
21/04:00pm 34.5 32.5 11.6 25 13.7 ENE 13 19 7 10 1010.8 1009.3 0.0
21/03:30pm 35.0 33.5 12.0 25 13.8 ENE 11 19 6 10 1011.0 1009.5 0.0
21/03:00pm 35.1 33.9 11.5 24 14.1 E 9 20 5 11 1011.1 1009.6 0.0
21/02:30pm 35.2 34.0 11.6 24 14.1 ESE 9 20 5 11 1011.4 1009.9 0.0
21/02:00pm 33.7 33.0 11.5 26 13.2 ESE 6 13 3 7 1011.8 1010.3 0.0
21/01:30pm 33.2 32.2 12.2 28 12.6 ESE 9 15 5 8 1012.0 1010.6 0.0
21/01:00pm 32.4 32.1 12.6 30 11.9 SE 6 11 3 6 1012.3 1010.9 0.0
21/12:30pm 31.3 31.1 11.7 30 11.5 ESE 4 9 2 5 1012.6 1011.2 0.0
21/12:00pm 31.0 29.6 10.9 29 11.7 ENE 9 13 5 7 1012.9 1011.5 0.0
21/11:30am 31.1 29.5 11.5 30 11.5 E 11 17 6 9 1013.2 1011.8 0.0
21/11:00am 30.2 28.0 10.7 30 11.3 E 13 19 7 10 1013.1 1011.7 0.0
21/10:30am 29.6 26.5 10.2 30 11.1 SE 17 20 9 11 1012.8 1011.4 0.0
21/10:00am 29.4 26.8 9.5 29 11.2 E 13 19 7 10 1013.1 1011.7 0.0
21/09:30am 28.6 25.5 8.8 29 11.0 SE 15 22 8 12 1013.5 1012.1 0.0
21/09:00am 27.7 25.7 8.6 30 10.5 ESE 9 15 5 8 1013.6 1012.2 0.0
21/08:30am 27.3 24.8 8.2 30 10.4 SE 11 13 6 7 1013.3 1011.9 0.0
21/08:00am 26.8 25.2 7.8 30 10.3 S 6 7 3 4 1013.2 1011.8 0.0
21/07:30am 25.3 24.1 7.9 33 9.3 SW 4 7 2 4 1012.9 1011.5 0.0
21/07:00am 24.5 23.9 7.6 34 9.0 CALM 0 4 0 2 1012.8 1011.4 0.0
21/06:30am 24.5 22.4 6.7 32 9.3 SW 7 9 4 5 1012.0 1010.6 0.0
21/06:00am 24.7 22.8 6.9 32 9.4 N 6 7 3 4 1012.3 1010.9 0.0
21/05:30am 24.4 21.5 6.6 32 9.3 NNW 11 15 6 8 1012.1 1010.7 0.0
21/05:00am 24.9 22.8 5.7 29 9.9 ESE 6 6 3 3 1011.7 1010.2 0.0
21/04:30am 25.2 22.9 4.9 27 10.3 ESE 6 7 3 4 1011.6 1010.1 0.0
21/04:00am 25.6 23.2 4.1 25 10.8 SE 6 9 3 5 1011.4 1009.9 0.0
21/03:30am 25.9 23.1 3.2 23 11.3 ESE 7 11 4 6 1011.4 1009.9 0.0
21/03:00am 26.4 22.8 3.0 22 11.6 SE 11 15 6 8 1011.4 1009.9 0.0
21/02:30am 27.2 23.1 2.3 20 12.3 SE 13 17 7 9 1011.8 1010.3 0.0
21/02:00am 27.4 24.0 1.8 19 12.5 SE 9 13 5 7 1011.8 1010.3 0.0
21/01:30am 27.7 24.3 2.0 19 12.6 SSE 9 13 5 7 1011.9 1010.4 0.0
21/01:00am 28.0 24.7 2.2 19 12.7 SSE 9 13 5 7 1011.7 1010.2 0.0
21/12:30am 28.1 24.6 3.7 21 12.4 SSE 11 17 6 9 1011.6 1010.1 0.0
21/12:00am 27.2 24.6 4.3 23 11.7 SSE 7 9 4 5 1011.7 1010.2 0.0
 
Date/Time
EST
Temp
°C
App
Temp
°C
Dew
Point
°C
Rel
Hum
%
Delta-T
°C
Wind Press
QNH
hPa
Press
MSL
hPa
Rain since
9am
mm
Dir  Spd
km/h
Gust
km/h
Spd
kts
Gust
kts
20/11:30pm 27.6 25.0 4.0 22 12.0 SSE 7 9 4 5 1012.0 1010.6 0.0
20/11:00pm 28.7 25.3 4.2 21 12.6 SSE 11 15 6 8 1011.9 1010.4 0.0
20/10:30pm 28.1 25.6 5.0 23 12.0 S 7 9 4 5 1011.9 1010.4 0.0
20/10:00pm 28.1 25.3 5.0 23 12.0 S 9 13 5 7 1011.6 1010.1 0.0
20/09:30pm 27.4 24.4 6.2 26 11.2 S 11 13 6 7 1011.2 1009.7 0.0
20/09:00pm 28.6 25.7 6.7 25 11.7 ESE 11 13 6 7 1010.8 1009.3 0.0
20/08:30pm 29.3 27.2 6.7 24 12.2 ESE 7 9 4 5 1010.7 1009.2 0.0
20/08:00pm 29.5 27.4 6.8 24 12.3 E 7 7 4 4 1010.4 1009.0 0.0
20/07:30pm 30.1 27.5 6.1 22 12.8 E 9 11 5 6 1009.7 1008.3 0.0
20/07:00pm 31.9 29.0 4.6 18 14.4 ESE 9 13 5 7 1009.2 1007.8 0.0
20/06:30pm 33.1 30.2 4.8 17 15.1 E 9 11 5 6 1009.1 1007.7 0.0
20/06:00pm 33.9 31.4 4.6 16 15.6 E 7 11 4 6 1009.0 1007.6 0.0
20/05:30pm 34.3 31.7 4.0 15 16.0 NE 7 15 4 8 1008.9 1007.5 0.0
20/05:00pm 34.7 31.2 3.3 14 16.5 SE 11 19 6 10 1009.0 1007.6 0.0
20/04:30pm 34.9 33.3 4.4 15 16.3 NE 2 9 1 5 1009.0 1007.6 0.0
20/04:00pm 34.6 32.0 3.2 14 16.5 SE 6 11 3 6 1009.0 1007.6 0.0
20/03:30pm 35.1 31.1 2.6 13 16.9 SSE 13 26 7 14 1009.1 1007.7 0.0
20/03:00pm 34.8 31.7 3.4 14 16.5 SE 9 20 5 11 1009.4 1008.0 0.0
20/02:30pm 35.3 31.9 3.8 14 16.7 S 11 20 6 11 1009.6 1008.2 0.0
20/02:00pm 34.4 31.8 4.0 15 16.1 WNW 7 15 4 8 1009.9 1008.5 0.0
20/01:30pm 34.1 31.2 4.7 16 15.7 SSE 9 22 5 12 1009.9 1008.5 0.0
20/01:00pm 33.9 30.6 6.3 18 15.1 ESE 13 24 7 13 1010.2 1008.8 0.0
20/12:30pm 32.9 29.3 8.4 22 13.8 ESE 17 28 9 15 1011.1 1009.6 0.0
20/12:00pm 32.2 28.4 9.7 25 12.9 ESE 20 30 11 16 1011.4 1009.9 0.0
20/11:30am 31.7 27.5 9.8 26 12.5 SE 22 37 12 20 1011.9 1010.4 0.0
20/11:00am 30.3 25.7 9.8 28 11.7 ESE 24 35 13 19 1012.3 1010.9 0.0
20/10:30am 30.9 26.9 10.3 28 11.8 SE 22 32 12 17 1012.5 1011.1 0.0
20/10:00am 29.6 25.6 9.2 28 11.5 ESE 20 32 11 17 1012.5 1011.1 0.0
20/09:30am 28.5 23.3 7.1 26 11.5 SE 24 32 13 17 1012.5 1011.1 0.0
20/09:00am 27.8 21.6 6.0 25 11.5 SE 28 37 15 20 1012.1 1010.7 0.0
20/08:30am 26.5 19.5 4.3 24 11.3 SE 30 39 16 21 1012.0 1010.6 0.0
20/08:00am 26.1 19.6 2.7 22 11.5 SSE 26 35 14 19 1011.8 1010.3 0.0
20/07:30am 25.3 19.6 2.7 23 11.1 SSE 22 41 12 22 1011.5 1010.0 0.0
20/07:00am 22.7 18.9 3.8 29 9.3 S 13 15 7 8 1011.2 1009.7 0.0
20/06:30am 21.2 17.7 3.4 31 8.6 S 11 15 6 8 1011.0 1009.5 0.0
20/06:00am 20.5 17.9 4.1 34 8.0 S 7 11 4 6 1010.4 1009.0 0.0
20/05:30am 20.1 17.8 5.7 39 7.2 SSE 7 9 4 5 1010.3 1008.9 0.0
20/05:00am 20.6 17.6 6.2 39 7.3 S 11 13 6 7 1010.0 1008.6 0.0
20/04:30am 21.7 19.5 7.9 41 7.3 SSE 9 9 5 5 1010.1 1008.7 0.0
20/04:00am 22.8 20.6 7.8 38 7.9 SSE 9 9 5 5 1010.2 1008.8 0.0
20/03:30am 21.4 21.0 11.1 52 5.7 SE 4 7 2 4 1010.2 1008.8 0.0
20/03:00am 22.4 21.4 10.2 46 6.7 SSE 6 7 3 4 1010.0 1008.6 0.0
20/02:30am 23.1 22.4 10.2 44 7.1 SSE 4 6 2 3 1010.0 1008.6 0.0
20/02:00am 22.8 23.6 12.4 52 6.0 CALM 0 0 0 0 1010.0 1008.6 0.0
20/01:30am 23.5 23.2 11.5 47 6.8 SE 4 6 2 3 1010.2 1008.8 0.0
20/01:00am 25.3 25.1 11.8 43 7.8 N 4 6 2 3 1010.3 1008.9 0.0
20/12:30am 24.3 23.6 11.9 45 7.1 NNE 7 11 4 6 1010.4 1009.0 0.0
20/12:00am 24.6 22.7 11.9 45 7.3 NE 13 17 7 9 1010.6 1009.1 0.0
 
Date/Time
EST
Temp
°C
App
Temp
°C
Dew
Point
°C
Rel
Hum
%
Delta-T
°C
Wind Press
QNH
hPa
Press
MSL
hPa
Rain since
9am
mm
Dir  Spd
km/h
Gust
km/h
Spd
kts
Gust
kts
19/11:30pm 25.2 24.1 9.9 38 8.5 W 6 7 3 4 1010.4 1009.0 0.0
19/11:00pm 25.2 23.4 9.5 37 8.7 SW 9 9 5 5 1010.2 1008.8 0.0
19/10:30pm 26.4 24.3 8.4 32 9.8 SSW 9 11 5 6 1010.0 1008.6 0.0
19/10:00pm 27.6 26.3 7.5 28 10.9 S 4 6 2 3 1009.9 1008.5 0.0
19/09:30pm 27.5 25.9 7.9 29 10.7 S 6 6 3 3 1009.8 1008.4 0.0
19/09:00pm 28.3 26.3 7.0 26 11.5 S 7 9 4 5 1009.3 1007.9 0.0
19/08:30pm 29.6 26.8 6.9 24 12.3 SSW 11 13 6 7 1009.0 1007.6 0.0
19/08:00pm 30.6 27.8 7.1 23 12.8 SSW 11 13 6 7 1008.7 1007.3 0.0
19/07:30pm 31.4 28.6 7.1 22 13.3 SW 11 13 6 7 1008.3 1006.9 0.0
19/07:00pm 32.4 29.1 6.6 20 14.1 SW 13 19 7 10 1008.0 1006.6 0.0

Other Formats:

Comma delimited format used in spreadsheet applications
http://www.bom.gov.au/fwo/IDQ60801/IDQ60801.94342.axf

JavaScript Object Notation format (JSON) in row-major order
http://www.bom.gov.au/fwo/IDQ60801/IDQ60801.94342.json